Time;durP1;ratioP1;P1;durP2;ratioP2;P2;SDS_P1;SDS_P2;PMS_P1;PMS_P2;Temp;Humidity;BMP_temperature;BMP_pressure;BME280_temperature;BME280_humidity;BME280_pressure;Samples;Min_cycle;Max_cycle;Signal;HPM_P1;HPM_P2
2023/07/08 00:25:12;;;;;;;11.50;9.03;;;13.80;99.90;;;;;;5652960;24;20972;-86
2023/07/08 00:50:32;;;;;;;16.33;10.30;;;13.50;99.90;;;;;;5553305;25;20519;-82
2023/07/08 01:11:08;;;;;;;10.27;9.20;;;13.70;99.90;;;;;;5570018;25;20304;-86
2023/07/08 01:36:42;;;;;;;12.37;9.83;;;13.30;99.90;;;;;;5546154;24;20599;-87
2023/07/08 02:17:18;;;;;;;11.47;8.73;;;13.00;99.90;;;;;;5808496;24;20219;-85
2023/07/08 02:37:39;;;;;;;16.07;9.57;;;12.60;99.90;;;;;;5809299;24;20313;-86
2023/07/08 03:02:42;;;;;;;10.43;9.43;;;13.00;99.90;;;;;;5641047;24;20250;-84
2023/07/08 03:22:59;;;;;;;11.03;9.83;;;13.60;99.90;;;;;;5720636;24;20169;-86
2023/07/08 04:38:46;;;;;;;12.77;10.87;;;16.60;99.80;;;;;;5602916;24;20656;-86
2023/07/08 05:40:09;;;;;;;8.60;7.07;;;21.20;81.20;;;;;;5850128;24;20248;-91
2023/07/08 06:05:00;;;;;;;7.57;5.85;;;22.50;67.70;;;;;;5848362;24;20621;-85
2023/07/08 06:25:11;;;;;;;4.18;3.80;;;22.90;58.50;;;;;;5571742;25;20724;-86
2023/07/08 07:10:59;;;;;;;4.50;3.42;;;24.50;48.30;;;;;;5718290;24;20570;-83
2023/07/08 07:31:39;;;;;;;3.17;2.88;;;25.50;47.40;;;;;;5742099;24;20304;-87
2023/07/08 08:01:57;;;;;;;3.60;2.45;;;26.40;44.00;;;;;;5554724;25;20347;-85
2023/07/08 08:27:05;;;;;;;3.28;2.47;;;26.80;43.40;;;;;;5722970;24;20401;-82
2023/07/08 08:52:30;;;;;;;3.50;2.60;;;26.70;42.40;;;;;;5618843;24;20626;-83
2023/07/08 09:53:06;;;;;;;3.45;2.83;;;27.00;42.20;;;;;;5798970;24;20349;-83
2023/07/08 10:28:53;;;;;;;6.05;2.92;;;28.00;42.70;;;;;;5903215;23;20825;-83
2023/07/08 10:59:48;;;;;;;2.60;2.40;;;26.90;41.60;;;;;;5782635;24;20217;-84
2023/07/08 11:04:13;;;;;;;3.55;2.90;;;26.80;41.30;;;;;;5732757;24;20534;-82
2023/07/08 11:39:37;;;;;;;3.85;2.90;;;28.40;41.90;;;;;;5476302;25;20540;-85
2023/07/08 12:05:41;;;;;;;3.38;3.08;;;28.90;42.10;;;;;;5686224;24;20575;-83
2023/07/08 12:40:30;;;;;;;4.35;3.55;;;30.20;42.10;;;;;;5737354;24;20447;-84
2023/07/08 13:01:31;;;;;;;3.38;3.08;;;31.10;41.70;;;;;;5853145;24;20248;-84
2023/07/08 13:05:53;;;;;;;3.40;3.10;;;31.40;42.20;;;;;;5653300;24;20952;-82
2023/07/08 14:02:20;;;;;;;6.03;3.50;;;32.80;41.50;;;;;;5822593;24;20263;-82
2023/07/08 14:22:38;;;;;;;3.10;2.90;;;37.20;40.30;;;;;;5819027;24;20228;-84
2023/07/08 15:48:35;;;;;;;6.38;3.10;;;35.30;38.60;;;;;;5869875;23;20272;-84
2023/07/08 16:14:15;;;;;;;3.42;3.22;;;30.70;37.80;;;;;;5721625;24;20251;-83
2023/07/08 17:50:31;;;;;;;3.70;3.40;;;26.90;40.60;;;;;;5602180;24;20271;-84
2023/07/08 18:10:45;;;;;;;4.68;3.95;;;26.20;40.70;;;;;;5946706;23;20315;-83
2023/07/08 18:55:51;;;;;;;10.15;6.68;;;24.30;42.90;;;;;;5705393;24;20563;-86
2023/07/08 19:21:36;;;;;;;9.50;6.43;;;22.50;48.70;;;;;;5778528;24;20233;-85
2023/07/08 19:52:14;;;;;;;9.37;6.73;;;21.00;74.60;;;;;;5776139;24;20191;-84
2023/07/08 20:17:41;;;;;;;12.43;7.80;;;20.10;83.10;;;;;;5649019;24;20242;-86
2023/07/08 21:03:09;;;;;;;18.70;15.90;;;19.90;85.10;;;;;;5772340;24;20284;-82
2023/07/08 21:33:44;;;;;;;14.97;9.90;;;20.30;79.20;;;;;;5897603;23;20212;-84
2023/07/08 21:58:57;;;;;;;8.13;7.43;;;20.40;77.50;;;;;;5763769;24;20242;-84
2023/07/08 22:19:26;;;;;;;8.27;7.27;;;20.30;77.50;;;;;;5739552;24;20888;-81
2023/07/08 22:39:31;;;;;;;8.23;7.30;;;20.00;79.10;;;;;;5742910;24;20284;-85
2023/07/08 23:04:48;;;;;;;8.03;7.10;;;19.40;81.40;;;;;;5768269;24;20195;-84
2023/07/08 23:35:22;;;;;;;8.23;7.30;;;19.20;82.40;;;;;;5587597;24;20185;-83
